createdAt,value
2018-06-19T00:01:06.691Z,10.60
2018-06-19T00:03:34.266Z,10.90
2018-06-19T00:06:01.867Z,10.30
2018-06-19T00:08:29.516Z,10.30
2018-06-19T00:10:57.071Z,10.00
2018-06-19T00:13:24.621Z,10.00
2018-06-19T00:15:52.212Z,9.80
2018-06-19T00:18:23.582Z,9.90
2018-06-19T00:20:52.478Z,9.90
2018-06-19T00:23:20.082Z,9.80
2018-06-19T00:25:47.646Z,10.70
2018-06-19T00:28:16.309Z,10.90
2018-06-19T00:30:43.849Z,10.80
2018-06-19T00:33:11.498Z,10.60
2018-06-19T00:35:39.010Z,10.20
2018-06-19T00:38:06.734Z,10.30
2018-06-19T00:40:34.308Z,10.20
2018-06-19T00:43:01.939Z,10.40
2018-06-19T00:45:29.489Z,10.50
2018-06-19T00:47:57.079Z,11.10
2018-06-19T00:50:24.651Z,11.40
2018-06-19T00:52:52.203Z,11.50
2018-06-19T00:55:19.738Z,11.60
2018-06-19T00:57:47.355Z,11.90
2018-06-19T01:00:14.714Z,12.30
2018-06-19T01:02:42.140Z,12.30
2018-06-19T01:05:09.675Z,12.50
2018-06-19T01:07:37.035Z,12.40
2018-06-19T01:10:04.435Z,12.60
2018-06-19T01:12:31.955Z,12.80
2018-06-19T01:14:59.292Z,13.20
2018-06-19T01:17:26.813Z,12.90
2018-06-19T01:19:54.174Z,12.60
2018-06-19T01:22:21.691Z,13.10
2018-06-19T01:24:50.540Z,13.00
2018-06-19T01:27:17.891Z,13.00
2018-06-19T01:29:45.267Z,12.90
2018-06-19T01:32:12.634Z,12.90
2018-06-19T01:34:40.169Z,12.90
2018-06-19T01:37:07.562Z,13.30
2018-06-19T01:39:34.985Z,13.60
2018-06-19T01:42:02.374Z,13.70
2018-06-19T01:44:29.722Z,13.70
2018-06-19T01:46:57.096Z,14.00
2018-06-19T01:49:24.463Z,13.80
2018-06-19T01:51:51.816Z,14.50
2018-06-19T01:54:19.201Z,14.60
2018-06-19T01:56:46.571Z,14.80
2018-06-19T01:59:14.003Z,15.00
2018-06-19T02:01:41.315Z,15.60
2018-06-19T02:04:08.780Z,15.60
2018-06-19T02:06:36.188Z,16.50
2018-06-19T02:09:06.063Z,16.80
2018-06-19T02:11:33.442Z,16.50
2018-06-19T02:14:00.785Z,16.50
2018-06-19T02:16:28.120Z,16.50
2018-06-19T02:18:55.613Z,16.50
2018-06-19T02:21:23.057Z,16.70
2018-06-19T02:23:50.402Z,16.50
2018-06-19T02:26:17.827Z,16.60
2018-06-19T02:28:45.147Z,16.90
2018-06-19T02:31:12.454Z,16.70
2018-06-19T02:33:39.814Z,16.60
2018-06-19T02:36:07.174Z,17.10
2018-06-19T02:38:34.525Z,16.60
2018-06-19T02:41:01.877Z,17.10
2018-06-19T02:43:29.338Z,17.20
2018-06-19T02:45:56.646Z,16.70
2018-06-19T02:48:24.026Z,16.50
2018-06-19T02:50:51.424Z,17.40
2018-06-19T02:53:18.801Z,17.60
2018-06-19T02:55:46.149Z,17.20
2018-06-19T02:58:13.502Z,17.20
2018-06-19T03:00:40.890Z,17.00
2018-06-19T03:03:08.348Z,17.20
2018-06-19T03:05:35.699Z,16.90
2018-06-19T03:08:03.053Z,16.60
2018-06-19T03:10:30.488Z,17.10
2018-06-19T03:12:58.137Z,17.80
2018-06-19T03:15:25.641Z,18.10
2018-06-19T03:17:53.148Z,18.00
2018-06-19T03:20:20.483Z,18.00
2018-06-19T03:22:48.121Z,18.70
2018-06-19T03:25:15.522Z,18.10
2018-06-19T03:27:43.708Z,18.30
2018-06-19T03:30:11.128Z,18.90
2018-06-19T03:32:38.449Z,18.10
2018-06-19T03:35:05.867Z,18.60
2018-06-19T03:37:33.202Z,17.90
2018-06-19T03:40:00.575Z,17.70
2018-06-19T03:42:27.995Z,18.30
2018-06-19T03:44:55.594Z,18.20
2018-06-19T03:47:22.919Z,18.40
2018-06-19T03:49:50.252Z,18.40
2018-06-19T03:52:17.760Z,18.80
2018-06-19T03:54:45.226Z,18.90
2018-06-19T03:57:12.593Z,18.70
2018-06-19T03:59:39.923Z,18.30
2018-06-19T04:02:07.325Z,19.20
2018-06-19T04:04:34.807Z,19.10
2018-06-19T04:07:02.256Z,19.10
2018-06-19T04:09:29.590Z,19.60
2018-06-19T04:11:57.070Z,19.90
2018-06-19T04:14:24.828Z,19.60
2018-06-19T04:16:52.374Z,20.20
2018-06-19T04:19:19.802Z,19.90
2018-06-19T04:21:47.180Z,19.70
2018-06-19T04:24:14.584Z,19.90
2018-06-19T04:26:41.918Z,20.80
2018-06-19T04:29:09.325Z,20.80
2018-06-19T04:34:04.367Z,20.80
2018-06-19T04:36:31.722Z,21.50
2018-06-19T04:38:59.046Z,21.20
2018-06-19T04:41:26.512Z,21.30
2018-06-19T04:43:53.847Z,21.00
2018-06-19T04:46:21.167Z,21.20
2018-06-19T04:48:48.507Z,21.30
2018-06-19T04:51:15.822Z,20.70
2018-06-19T04:53:43.177Z,21.50
2018-06-19T04:56:10.617Z,21.60
2018-06-19T04:58:38.064Z,21.80
2018-06-19T05:01:05.623Z,22.70
2018-06-19T05:03:32.997Z,23.50
2018-06-19T05:06:00.354Z,23.70
2018-06-19T05:08:27.719Z,24.50
2018-06-19T05:10:55.195Z,24.20
2018-06-19T05:13:22.629Z,24.10
2018-06-19T05:15:50.094Z,24.20
2018-06-19T05:18:17.682Z,25.10
2018-06-19T05:20:45.907Z,25.10
2018-06-19T05:23:13.402Z,24.90
2018-06-19T05:25:42.072Z,24.90
2018-06-19T05:28:09.602Z,25.60
2018-06-19T05:30:37.031Z,25.70
2018-06-19T05:33:04.530Z,26.00
2018-06-19T05:35:31.975Z,25.80
2018-06-19T05:37:59.443Z,26.00
2018-06-19T05:40:26.871Z,25.70
2018-06-19T05:42:54.714Z,25.70
2018-06-19T05:45:22.051Z,26.10
2018-06-19T05:47:49.574Z,26.10
2018-06-19T05:50:16.994Z,26.60
2018-06-19T05:52:44.626Z,26.60
2018-06-19T05:55:11.979Z,26.60
2018-06-19T05:57:39.335Z,26.60
2018-06-19T06:00:06.935Z,27.50
2018-06-19T06:02:34.578Z,27.90
2018-06-19T06:05:02.022Z,28.20
2018-06-19T06:07:29.403Z,29.10
2018-06-19T06:09:56.885Z,29.00
2018-06-19T06:12:24.245Z,29.60
2018-06-19T06:14:51.778Z,29.30
2018-06-19T06:17:19.127Z,29.60
2018-06-19T06:19:46.535Z,29.20
2018-06-19T06:22:13.867Z,29.80
2018-06-19T06:24:41.538Z,29.80
2018-06-19T06:27:09.192Z,29.90
2018-06-19T06:29:36.586Z,30.30
2018-06-19T06:32:03.950Z,30.20
2018-06-19T06:34:31.362Z,30.60
2018-06-19T06:36:58.824Z,30.40
2018-06-19T06:39:26.134Z,32.00
2018-06-19T06:41:53.502Z,30.90
2018-06-19T06:44:20.863Z,32.70
2018-06-19T06:46:48.286Z,32.00
2018-06-19T06:49:15.713Z,30.60
2018-06-19T06:51:43.071Z,30.50
2018-06-19T06:54:10.978Z,30.30
2018-06-19T06:56:39.106Z,30.40
2018-06-19T06:59:06.512Z,29.90
2018-06-19T07:01:33.846Z,29.70
2018-06-19T07:04:01.264Z,30.00
2018-06-19T07:06:29.242Z,29.40
2018-06-19T07:08:56.597Z,30.70
2018-06-19T07:11:23.970Z,30.50
2018-06-19T07:13:51.367Z,30.50
2018-06-19T07:16:19.064Z,30.80
2018-06-19T07:18:46.899Z,30.20
2018-06-19T07:21:14.252Z,31.10
2018-06-19T07:23:41.622Z,31.40
2018-06-19T07:26:09.160Z,31.40
2018-06-19T07:28:36.506Z,31.80
2018-06-19T07:31:04.031Z,32.10
2018-06-19T07:33:32.928Z,32.60
2018-06-19T07:36:00.299Z,32.70
2018-06-19T07:38:27.764Z,31.60
2018-06-19T07:40:55.146Z,31.40
2018-06-19T07:43:22.635Z,31.20
2018-06-19T07:45:50.111Z,31.10
2018-06-19T07:48:21.165Z,30.40
2018-06-19T07:50:58.919Z,30.00
2018-06-19T07:53:26.250Z,30.90
2018-06-19T07:55:53.620Z,30.90
2018-06-19T07:58:21.060Z,32.00
2018-06-19T08:00:48.406Z,33.50
2018-06-19T08:03:15.829Z,32.20
2018-06-19T08:05:43.176Z,32.60
2018-06-19T08:08:10.649Z,33.20
2018-06-19T08:10:38.087Z,33.70
2018-06-19T08:13:05.497Z,32.40
2018-06-19T08:15:32.859Z,32.30
2018-06-19T08:18:00.210Z,32.60
2018-06-19T08:20:27.547Z,33.90
2018-06-19T08:22:55.066Z,34.20
2018-06-19T08:25:22.399Z,33.60
2018-06-19T08:27:49.734Z,34.40
2018-06-19T08:30:17.066Z,34.30
2018-06-19T08:32:44.402Z,34.00
2018-06-19T08:35:11.867Z,33.90
2018-06-19T08:37:39.179Z,34.50
2018-06-19T08:40:06.815Z,35.40
2018-06-19T08:42:34.233Z,35.50
2018-06-19T08:45:01.610Z,37.20
2018-06-19T08:47:29.021Z,38.70
2018-06-19T08:49:56.382Z,39.30
2018-06-19T08:52:23.739Z,42.00
2018-06-19T08:54:51.233Z,42.20
2018-06-19T08:57:18.612Z,44.30
2018-06-19T08:59:46.011Z,46.10
2018-06-19T09:02:13.367Z,46.30
2018-06-19T09:04:40.782Z,45.60
2018-06-19T09:07:08.367Z,46.80
2018-06-19T09:09:35.730Z,45.90
2018-06-19T09:12:03.189Z,46.20
2018-06-19T09:14:30.560Z,46.70
2018-06-19T09:16:58.038Z,46.70
2018-06-19T09:19:29.797Z,47.70
2018-06-19T09:21:57.181Z,48.30
2018-06-19T09:24:24.686Z,47.10
2018-06-19T09:26:52.226Z,46.00
2018-06-19T09:29:19.604Z,46.60
2018-06-19T09:31:47.006Z,46.70
2018-06-19T09:34:15.979Z,47.10
2018-06-19T09:36:43.352Z,47.50
2018-06-19T09:39:12.603Z,49.00
2018-06-19T09:41:40.051Z,47.50
2018-06-19T09:44:07.539Z,48.30
2018-06-19T09:46:34.987Z,48.10
2018-06-19T09:49:07.610Z,46.50
2018-06-19T09:51:35.337Z,43.70
2018-06-19T09:54:02.761Z,43.80
2018-06-19T09:56:30.191Z,44.40
2018-06-19T09:58:57.727Z,47.40
2018-06-19T10:01:28.232Z,46.60
2018-06-19T10:06:23.111Z,45.30
2018-06-19T10:08:50.413Z,43.90
2018-06-19T10:11:17.825Z,42.70
2018-06-19T10:13:50.015Z,43.90
2018-06-19T10:16:17.632Z,45.90
2018-06-19T10:21:12.385Z,53.10
2018-06-19T10:23:39.782Z,53.10
2018-06-19T10:26:07.302Z,53.80
2018-06-19T10:28:36.811Z,53.90
2018-06-19T10:31:04.227Z,54.70
2018-06-19T10:33:31.598Z,53.50
2018-06-19T10:35:59.023Z,49.70
2018-06-19T10:38:26.392Z,47.40
2018-06-19T10:40:58.585Z,46.00
2018-06-19T10:43:25.979Z,45.30
2018-06-19T10:45:53.408Z,43.60
2018-06-19T10:48:20.790Z,43.20
2018-06-19T10:50:48.181Z,43.70
2018-06-19T10:53:15.629Z,42.50
2018-06-19T10:55:46.274Z,42.00
2018-06-19T10:58:13.602Z,41.50
2018-06-19T11:00:41.146Z,40.60
2018-06-19T11:03:08.580Z,40.60
2018-06-19T11:05:36.051Z,41.80
2018-06-19T11:08:03.467Z,40.70
2018-06-19T11:10:33.278Z,40.00
2018-06-19T11:13:00.656Z,39.10
2018-06-19T11:15:28.061Z,39.40
2018-06-19T11:17:55.509Z,38.60
2018-06-19T11:20:22.892Z,38.10
2018-06-19T11:22:55.243Z,38.20
2018-06-19T11:25:22.625Z,40.00
2018-06-19T11:27:49.976Z,36.80
2018-06-19T11:30:17.374Z,36.10
2018-06-19T11:32:44.739Z,37.20
2018-06-19T11:35:12.138Z,32.60
2018-06-19T11:37:41.351Z,32.30
2018-06-19T11:40:08.928Z,33.10
2018-06-19T11:42:36.453Z,32.20
2018-06-19T11:45:03.900Z,30.40
2018-06-19T11:47:31.247Z,29.20
2018-06-19T11:49:58.618Z,30.30
2018-06-19T11:52:31.533Z,29.40
2018-06-19T11:54:58.899Z,28.60
2018-06-19T11:57:26.415Z,29.50
2018-06-19T11:59:53.783Z,27.60
2018-06-19T12:02:21.139Z,27.40
2018-06-19T12:04:48.480Z,26.50
2018-06-19T12:07:18.938Z,26.50
2018-06-19T12:09:46.305Z,27.00
2018-06-19T12:12:13.646Z,24.50
2018-06-19T12:14:44.024Z,23.30
2018-06-19T12:17:11.799Z,23.80
2018-06-19T12:19:42.297Z,23.40
2018-06-19T12:22:09.743Z,23.20
2018-06-19T12:24:37.114Z,21.80
2018-06-19T12:27:05.592Z,22.00
2018-06-19T12:29:33.049Z,21.60
2018-06-19T12:32:00.395Z,20.30
2018-06-19T12:34:29.399Z,20.70
2018-06-19T12:36:56.801Z,20.20
2018-06-19T12:39:24.136Z,20.20
2018-06-19T12:41:51.507Z,21.80
2018-06-19T12:44:18.850Z,20.30
2018-06-19T12:46:46.288Z,17.80
2018-06-19T12:49:24.971Z,20.00
2018-06-19T12:52:03.989Z,19.30
2018-06-19T12:54:45.523Z,19.70
2018-06-19T12:57:13.043Z,19.00
2018-06-19T12:59:40.427Z,17.70
2018-06-19T13:02:07.970Z,14.60
2018-06-19T13:04:46.857Z,13.10
2018-06-19T13:07:14.228Z,12.80
2018-06-19T13:09:41.601Z,14.50
2018-06-19T13:12:23.874Z,15.10
2018-06-19T13:14:51.502Z,15.70
2018-06-19T13:17:30.693Z,14.00
2018-06-19T13:20:09.702Z,14.00
2018-06-19T13:22:37.662Z,14.50
2018-06-19T13:25:05.231Z,15.10
2018-06-19T13:27:32.760Z,14.20
2018-06-19T13:30:11.667Z,11.10
2018-06-19T13:32:39.545Z,11.90
2018-06-19T13:35:07.243Z,12.40
2018-06-19T13:37:34.815Z,12.00
2018-06-19T13:41:15.582Z,11.40
2018-06-19T13:43:55.029Z,11.20
2018-06-19T13:46:22.416Z,10.90
2018-06-19T13:48:49.769Z,11.30
2018-06-19T13:51:17.226Z,11.30
2018-06-19T13:53:44.997Z,12.50
2018-06-19T13:57:28.894Z,11.50
2018-06-19T13:59:57.001Z,10.40
2018-06-19T14:02:24.583Z,10.60
2018-06-19T14:04:52.140Z,12.10
2018-06-19T14:07:20.620Z,11.00
2018-06-19T14:09:59.695Z,12.10
2018-06-19T14:12:39.387Z,12.40
2018-06-19T14:15:06.995Z,10.40
2018-06-19T14:20:03.156Z,10.50
2018-06-19T14:22:30.764Z,9.40
2018-06-19T14:24:58.851Z,9.20
2018-06-19T14:27:26.408Z,9.20
2018-06-19T14:29:53.976Z,9.60
2018-06-19T14:32:21.563Z,9.20
2018-06-19T14:34:49.147Z,6.90
2018-06-19T14:37:16.804Z,7.10
2018-06-19T14:39:44.627Z,6.60
2018-06-19T14:42:12.464Z,7.20
2018-06-19T14:44:42.966Z,8.60
2018-06-19T14:47:10.560Z,8.80
2018-06-19T14:49:38.150Z,8.60
2018-06-19T14:52:05.729Z,9.00
2018-06-19T14:54:33.340Z,8.50
2018-06-19T14:57:00.903Z,9.00
2018-06-19T14:59:31.654Z,9.00
2018-06-19T15:01:59.280Z,9.50
2018-06-19T15:06:54.371Z,10.00
2018-06-19T15:09:21.970Z,10.20
2018-06-19T15:11:49.563Z,10.30
2018-06-19T15:14:17.124Z,9.40
2018-06-19T15:16:44.843Z,10.50
2018-06-19T15:19:12.515Z,8.90
2018-06-19T15:21:40.190Z,9.10
2018-06-19T15:24:07.899Z,7.80
2018-06-19T15:26:35.427Z,7.30
2018-06-19T15:29:03.013Z,7.30
2018-06-19T15:31:30.570Z,6.90
2018-06-19T15:33:58.155Z,6.80
2018-06-19T15:36:25.694Z,7.80
2018-06-19T15:38:53.285Z,7.70
2018-06-19T15:41:20.898Z,7.30
2018-06-19T15:43:49.172Z,6.70
2018-06-19T15:46:20.186Z,7.50
2018-06-19T15:48:48.849Z,7.90
2018-06-19T15:51:16.428Z,8.50
2018-06-19T15:53:44.030Z,8.30
2018-06-19T15:56:11.884Z,8.70
2018-06-19T15:58:40.156Z,8.60
2018-06-19T16:01:09.052Z,7.80
2018-06-19T16:03:36.628Z,7.80
2018-06-19T16:06:04.170Z,7.10
2018-06-19T16:08:31.690Z,6.90
2018-06-19T16:10:59.326Z,7.60
2018-06-19T16:13:26.937Z,7.30
2018-06-19T16:15:57.378Z,7.30
2018-06-19T16:18:24.980Z,7.20
2018-06-19T16:20:52.524Z,7.30
2018-06-19T16:23:20.123Z,8.00
2018-06-19T16:25:47.682Z,8.10
2018-06-19T16:28:15.261Z,8.80
2018-06-19T16:30:42.810Z,9.20
2018-06-19T16:33:11.467Z,8.80
2018-06-19T16:35:39.132Z,8.50
2018-06-19T16:38:06.748Z,7.70
2018-06-19T16:40:34.332Z,8.30
2018-06-19T16:43:02.074Z,8.50
2018-06-19T16:45:29.744Z,8.90
2018-06-19T16:48:01.128Z,8.80
2018-06-19T16:50:28.687Z,9.30
2018-06-19T16:52:56.264Z,9.30
2018-06-19T16:55:23.836Z,8.10
2018-06-19T16:57:51.363Z,8.10
2018-06-19T17:00:23.677Z,7.90
2018-06-19T17:02:51.250Z,8.30
2018-06-19T17:05:18.823Z,8.20
2018-06-19T17:07:46.413Z,8.40
2018-06-19T17:10:14.354Z,9.00
2018-06-19T17:12:47.247Z,7.80
2018-06-19T17:15:14.801Z,7.20
2018-06-19T17:17:42.377Z,7.40
2018-06-19T17:20:09.963Z,8.30
2018-06-19T17:22:37.699Z,8.00
2018-06-19T17:25:05.319Z,8.10
2018-06-19T17:27:34.286Z,8.40
2018-06-19T17:30:01.912Z,8.80
2018-06-19T17:32:29.519Z,9.00
2018-06-19T17:34:57.082Z,8.70
2018-06-19T17:37:24.642Z,8.80
2018-06-19T17:39:56.358Z,8.80
2018-06-19T17:42:24.018Z,9.40
2018-06-19T17:44:51.574Z,9.50
2018-06-19T17:47:19.106Z,10.10
2018-06-19T17:49:46.642Z,10.10
2018-06-19T17:52:14.286Z,10.00
2018-06-19T17:54:43.962Z,10.10
2018-06-19T17:57:11.667Z,10.10
2018-06-19T17:59:39.196Z,10.00
2018-06-19T18:02:07.543Z,9.30
2018-06-19T18:04:35.021Z,9.60
2018-06-19T18:07:06.392Z,10.00
2018-06-19T18:09:34.100Z,9.90
2018-06-19T18:12:01.715Z,10.00
2018-06-19T18:14:29.197Z,10.00
2018-06-19T18:16:56.741Z,10.50
2018-06-19T18:19:24.264Z,11.40
2018-06-19T18:21:56.016Z,10.80
2018-06-19T18:24:23.608Z,11.40
2018-06-19T18:26:51.147Z,11.20
2018-06-19T18:29:18.865Z,11.20
2018-06-19T18:31:46.381Z,11.20
2018-06-19T18:34:13.926Z,11.60
2018-06-19T18:36:46.424Z,12.00
2018-06-19T18:39:14.655Z,11.20
2018-06-19T18:41:42.200Z,11.40
2018-06-19T18:44:09.836Z,11.10
2018-06-19T18:46:37.452Z,11.10
2018-06-19T18:49:08.099Z,11.20
2018-06-19T18:51:35.749Z,11.00
2018-06-19T18:54:03.374Z,10.80
2018-06-19T18:56:30.879Z,10.80
2018-06-19T19:01:31.130Z,11.20
2018-06-19T19:03:58.674Z,11.20
2018-06-19T19:06:26.288Z,11.10
2018-06-19T19:08:54.181Z,11.50
2018-06-19T19:11:21.766Z,11.40
2018-06-19T19:13:51.800Z,12.40
2018-06-19T19:16:27.963Z,12.60
2018-06-19T19:19:00.782Z,12.80
2018-06-19T19:21:29.270Z,12.50
2018-06-19T19:24:00.547Z,12.50
2018-06-19T19:29:07.226Z,12.40
2018-06-19T19:31:39.737Z,12.90
2018-06-19T19:34:07.431Z,13.30
2018-06-19T19:36:40.770Z,13.40
2018-06-19T19:39:18.146Z,13.10
2018-06-19T19:41:45.891Z,13.60
2018-06-19T19:44:13.518Z,13.10
2018-06-19T19:46:46.841Z,13.20
2018-06-19T19:49:14.445Z,13.20
2018-06-19T19:51:43.798Z,13.30
2018-06-19T19:54:11.664Z,13.60
2018-06-19T19:56:45.790Z,13.70
2018-06-19T19:59:13.461Z,13.50
2018-06-19T20:01:44.495Z,14.30
2018-06-19T20:04:12.108Z,13.80
2018-06-19T20:06:39.703Z,14.30
2018-06-19T20:09:08.250Z,14.70
2018-06-19T20:11:35.828Z,15.30
2018-06-19T20:14:09.931Z,15.00
2018-06-19T20:16:37.499Z,14.80
2018-06-19T20:19:05.183Z,15.40
2018-06-19T20:21:33.007Z,15.50
2018-06-19T20:24:00.574Z,15.80
2018-06-19T20:26:32.952Z,16.40
2018-06-19T20:29:00.496Z,16.40
2018-06-19T20:31:28.039Z,16.50
2018-06-19T20:33:55.657Z,17.10
2018-06-19T20:36:23.293Z,17.00
2018-06-19T20:38:50.942Z,17.70
2018-06-19T20:41:18.610Z,17.70
2018-06-19T20:43:48.163Z,17.90
2018-06-19T20:46:15.690Z,18.20
2018-06-19T20:48:43.254Z,18.30
2018-06-19T20:51:10.908Z,18.40
2018-06-19T20:53:39.339Z,18.20
2018-06-19T20:56:07.775Z,18.90
2018-06-19T20:58:36.788Z,18.50
2018-06-19T21:01:04.391Z,18.70
2018-06-19T21:03:32.096Z,19.50
2018-06-19T21:05:59.818Z,19.60
2018-06-19T21:08:33.089Z,19.60
2018-06-19T21:11:05.316Z,19.60
2018-06-19T21:13:32.943Z,19.40
2018-06-19T21:16:00.601Z,20.10
2018-06-19T21:18:28.257Z,19.90
2018-06-19T21:20:55.927Z,20.70
2018-06-19T21:23:23.482Z,21.00
2018-06-19T21:25:57.529Z,20.60
2018-06-19T21:28:25.095Z,20.80
2018-06-19T21:30:52.831Z,21.10
2018-06-19T21:33:20.474Z,21.90
2018-06-19T21:35:48.173Z,21.50
2018-06-19T21:38:20.856Z,22.00
2018-06-19T21:40:48.689Z,21.60
2018-06-19T21:43:16.322Z,22.20
2018-06-19T21:45:43.920Z,21.80
2018-06-19T21:48:11.458Z,22.20
2018-06-19T21:50:39.018Z,22.40
2018-06-19T21:55:34.191Z,22.80
2018-06-19T21:58:01.812Z,22.60
2018-06-19T22:00:29.341Z,22.70
2018-06-19T22:02:56.932Z,22.60
2018-06-19T22:05:24.497Z,23.20
2018-06-19T22:07:52.006Z,23.40
2018-06-19T22:10:19.562Z,23.60
2018-06-19T22:12:47.131Z,23.80
2018-06-19T22:15:14.692Z,23.70
2018-06-19T22:17:42.302Z,23.70
2018-06-19T22:20:09.934Z,24.00
2018-06-19T22:22:37.577Z,24.30
2018-06-19T22:25:05.131Z,24.90
2018-06-19T22:27:32.759Z,25.40
2018-06-19T22:30:00.378Z,25.80
2018-06-19T22:32:27.919Z,25.40
2018-06-19T22:34:55.476Z,25.60
2018-06-19T22:37:23.117Z,25.60
2018-06-19T22:39:50.692Z,25.80
2018-06-19T22:42:18.285Z,26.20
2018-06-19T22:44:45.880Z,26.40
2018-06-19T22:47:13.474Z,26.50
2018-06-19T22:49:40.987Z,27.70
2018-06-19T22:52:08.956Z,27.30
2018-06-19T22:54:36.682Z,27.10
2018-06-19T22:57:04.321Z,26.70
2018-06-19T22:59:31.871Z,26.70
2018-06-19T23:01:59.447Z,27.80
2018-06-19T23:04:27.027Z,27.80
2018-06-19T23:06:54.563Z,27.00
2018-06-19T23:09:22.071Z,26.60
2018-06-19T23:11:49.610Z,26.60
2018-06-19T23:14:18.721Z,27.00
2018-06-19T23:16:46.266Z,27.30
2018-06-19T23:19:13.793Z,29.20
2018-06-19T23:21:42.122Z,27.90
2018-06-19T23:24:09.726Z,28.70
2018-06-19T23:26:42.175Z,28.40
2018-06-19T23:29:09.861Z,29.20
2018-06-19T23:31:37.374Z,29.10
2018-06-19T23:34:05.010Z,29.20
2018-06-19T23:36:32.561Z,29.50
2018-06-19T23:39:00.075Z,29.20
2018-06-19T23:41:32.546Z,30.00
2018-06-19T23:44:00.144Z,29.60
2018-06-19T23:46:27.807Z,29.90
2018-06-19T23:48:55.376Z,30.00
2018-06-19T23:51:22.910Z,30.30
2018-06-19T23:53:59.165Z,32.20
2018-06-19T23:56:26.694Z,32.80
2018-06-19T23:58:54.271Z,33.20
